sensor_id;sensor_type;location;lat;lon;timestamp;P1;durP1;ratioP1;P2;durP2;ratioP2
20597;SDS011;10457;48.770;11.446;2022-11-15T00:01:20;18.67;;;12.00;;
20597;SDS011;10457;48.770;11.446;2022-11-15T00:07:04;17.57;;;12.20;;
20597;SDS011;10457;48.770;11.446;2022-11-15T00:12:45;17.83;;;11.73;;
20597;SDS011;10457;48.770;11.446;2022-11-15T00:18:26;17.27;;;11.73;;
20597;SDS011;10457;48.770;11.446;2022-11-15T00:24:07;18.77;;;12.50;;
20597;SDS011;10457;48.770;11.446;2022-11-15T00:29:49;18.87;;;11.27;;
20597;SDS011;10457;48.770;11.446;2022-11-15T00:35:31;20.53;;;12.13;;
20597;SDS011;10457;48.770;11.446;2022-11-15T00:41:11;19.57;;;13.03;;
20597;SDS011;10457;48.770;11.446;2022-11-15T00:46:53;21.03;;;12.23;;
20597;SDS011;10457;48.770;11.446;2022-11-15T00:52:33;19.70;;;11.47;;
20597;SDS011;10457;48.770;11.446;2022-11-15T00:58:15;17.00;;;11.80;;
20597;SDS011;10457;48.770;11.446;2022-11-15T01:03:56;17.83;;;11.50;;
20597;SDS011;10457;48.770;11.446;2022-11-15T01:09:36;15.93;;;11.43;;
20597;SDS011;10457;48.770;11.446;2022-11-15T01:15:16;19.33;;;11.70;;
20597;SDS011;10457;48.770;11.446;2022-11-15T01:20:58;18.40;;;12.27;;
20597;SDS011;10457;48.770;11.446;2022-11-15T01:26:38;16.63;;;11.03;;
20597;SDS011;10457;48.770;11.446;2022-11-15T01:32:18;19.00;;;12.07;;
20597;SDS011;10457;48.770;11.446;2022-11-15T01:37:59;19.13;;;12.73;;
20597;SDS011;10457;48.770;11.446;2022-11-15T01:43:39;22.43;;;12.63;;
20597;SDS011;10457;48.770;11.446;2022-11-15T01:49:19;20.73;;;12.87;;
20597;SDS011;10457;48.770;11.446;2022-11-15T01:55:05;17.87;;;12.43;;
20597;SDS011;10457;48.770;11.446;2022-11-15T02:00:49;16.63;;;12.10;;
20597;SDS011;10457;48.770;11.446;2022-11-15T02:06:30;15.87;;;12.17;;
20597;SDS011;10457;48.770;11.446;2022-11-15T02:12:12;21.43;;;11.77;;
20597;SDS011;10457;48.770;11.446;2022-11-15T02:18:01;17.33;;;11.63;;
20597;SDS011;10457;48.770;11.446;2022-11-15T02:24:05;17.40;;;11.30;;
20597;SDS011;10457;48.770;11.446;2022-11-15T02:30:24;17.30;;;11.17;;
20597;SDS011;10457;48.770;11.446;2022-11-15T02:36:18;21.17;;;11.93;;
20597;SDS011;10457;48.770;11.446;2022-11-15T02:42:11;19.70;;;12.37;;
20597;SDS011;10457;48.770;11.446;2022-11-15T02:48:11;18.27;;;12.33;;
20597;SDS011;10457;48.770;11.446;2022-11-15T02:53:52;18.67;;;12.53;;
20597;SDS011;10457;48.770;11.446;2022-11-15T02:59:36;20.03;;;11.80;;
20597;SDS011;10457;48.770;11.446;2022-11-15T03:05:37;20.23;;;12.00;;
20597;SDS011;10457;48.770;11.446;2022-11-15T03:11:25;21.63;;;12.43;;
20597;SDS011;10457;48.770;11.446;2022-11-15T03:17:08;18.53;;;12.40;;
20597;SDS011;10457;48.770;11.446;2022-11-15T03:22:56;18.43;;;12.17;;
20597;SDS011;10457;48.770;11.446;2022-11-15T03:28:44;18.30;;;11.40;;
20597;SDS011;10457;48.770;11.446;2022-11-15T03:34:29;17.43;;;11.67;;
20597;SDS011;10457;48.770;11.446;2022-11-15T03:40:14;14.97;;;11.33;;
20597;SDS011;10457;48.770;11.446;2022-11-15T03:45:57;19.67;;;12.10;;
20597;SDS011;10457;48.770;11.446;2022-11-15T03:51:41;16.70;;;11.90;;
20597;SDS011;10457;48.770;11.446;2022-11-15T03:57:22;20.57;;;12.43;;
20597;SDS011;10457;48.770;11.446;2022-11-15T04:03:02;21.83;;;12.70;;
20597;SDS011;10457;48.770;11.446;2022-11-15T04:08:43;17.93;;;12.40;;
20597;SDS011;10457;48.770;11.446;2022-11-15T04:14:24;20.00;;;12.57;;
20597;SDS011;10457;48.770;11.446;2022-11-15T04:20:05;19.73;;;12.73;;
20597;SDS011;10457;48.770;11.446;2022-11-15T04:26:07;17.27;;;12.63;;
20597;SDS011;10457;48.770;11.446;2022-11-15T04:31:51;20.70;;;13.03;;
20597;SDS011;10457;48.770;11.446;2022-11-15T04:37:31;20.47;;;13.20;;
20597;SDS011;10457;48.770;11.446;2022-11-15T04:43:14;25.00;;;15.53;;
20597;SDS011;10457;48.770;11.446;2022-11-15T04:48:55;21.23;;;13.57;;
20597;SDS011;10457;48.770;11.446;2022-11-15T04:54:35;22.30;;;14.87;;
20597;SDS011;10457;48.770;11.446;2022-11-15T05:00:18;20.33;;;13.80;;
20597;SDS011;10457;48.770;11.446;2022-11-15T05:06:00;24.17;;;14.00;;
20597;SDS011;10457;48.770;11.446;2022-11-15T05:11:41;23.70;;;13.93;;
20597;SDS011;10457;48.770;11.446;2022-11-15T05:17:21;25.00;;;15.03;;
20597;SDS011;10457;48.770;11.446;2022-11-15T05:23:02;22.93;;;15.30;;
20597;SDS011;10457;48.770;11.446;2022-11-15T05:28:43;21.50;;;14.77;;
20597;SDS011;10457;48.770;11.446;2022-11-15T05:34:23;24.83;;;15.33;;
20597;SDS011;10457;48.770;11.446;2022-11-15T05:40:06;25.73;;;15.33;;
20597;SDS011;10457;48.770;11.446;2022-11-15T05:45:48;20.87;;;14.60;;
20597;SDS011;10457;48.770;11.446;2022-11-15T05:51:28;23.67;;;14.87;;
20597;SDS011;10457;48.770;11.446;2022-11-15T05:57:10;26.57;;;15.63;;
20597;SDS011;10457;48.770;11.446;2022-11-15T06:02:51;29.37;;;15.77;;
20597;SDS011;10457;48.770;11.446;2022-11-15T06:08:30;24.13;;;15.60;;
20597;SDS011;10457;48.770;11.446;2022-11-15T06:14:15;27.00;;;16.70;;
20597;SDS011;10457;48.770;11.446;2022-11-15T06:19:55;25.77;;;16.77;;
20597;SDS011;10457;48.770;11.446;2022-11-15T06:25:35;25.20;;;17.03;;
20597;SDS011;10457;48.770;11.446;2022-11-15T06:31:16;28.70;;;16.53;;
20597;SDS011;10457;48.770;11.446;2022-11-15T06:36:57;26.70;;;16.77;;
20597;SDS011;10457;48.770;11.446;2022-11-15T06:42:37;28.90;;;17.23;;
20597;SDS011;10457;48.770;11.446;2022-11-15T06:48:19;28.43;;;16.67;;
20597;SDS011;10457;48.770;11.446;2022-11-15T06:53:59;28.47;;;17.50;;
20597;SDS011;10457;48.770;11.446;2022-11-15T06:59:39;31.40;;;16.33;;
20597;SDS011;10457;48.770;11.446;2022-11-15T07:05:20;26.80;;;15.47;;
20597;SDS011;10457;48.770;11.446;2022-11-15T07:11:01;26.07;;;15.83;;
20597;SDS011;10457;48.770;11.446;2022-11-15T07:16:44;24.67;;;14.47;;
20597;SDS011;10457;48.770;11.446;2022-11-15T07:22:25;29.10;;;17.47;;
20597;SDS011;10457;48.770;11.446;2022-11-15T07:28:07;34.73;;;19.47;;
20597;SDS011;10457;48.770;11.446;2022-11-15T07:33:47;29.03;;;16.43;;
20597;SDS011;10457;48.770;11.446;2022-11-15T07:39:28;21.83;;;13.30;;
20597;SDS011;10457;48.770;11.446;2022-11-15T07:45:08;19.60;;;13.03;;
20597;SDS011;10457;48.770;11.446;2022-11-15T07:50:48;21.60;;;12.70;;
20597;SDS011;10457;48.770;11.446;2022-11-15T07:56:30;21.80;;;13.97;;
20597;SDS011;10457;48.770;11.446;2022-11-15T08:02:10;23.83;;;13.67;;
20597;SDS011;10457;48.770;11.446;2022-11-15T08:07:50;20.10;;;14.53;;
20597;SDS011;10457;48.770;11.446;2022-11-15T08:13:31;21.30;;;13.30;;
20597;SDS011;10457;48.770;11.446;2022-11-15T08:19:12;21.07;;;13.33;;
20597;SDS011;10457;48.770;11.446;2022-11-15T08:24:52;20.60;;;14.23;;
20597;SDS011;10457;48.770;11.446;2022-11-15T08:30:36;23.93;;;13.40;;
20597;SDS011;10457;48.770;11.446;2022-11-15T08:36:25;15.70;;;11.27;;
20597;SDS011;10457;48.770;11.446;2022-11-15T08:42:06;16.90;;;10.43;;
20597;SDS011;10457;48.770;11.446;2022-11-15T08:47:48;14.50;;;10.27;;
20597;SDS011;10457;48.770;11.446;2022-11-15T08:53:28;14.53;;;9.60;;
20597;SDS011;10457;48.770;11.446;2022-11-15T08:59:08;15.10;;;9.23;;
20597;SDS011;10457;48.770;11.446;2022-11-15T09:04:50;11.73;;;8.48;;
20597;SDS011;10457;48.770;11.446;2022-11-15T09:10:33;13.77;;;9.13;;
20597;SDS011;10457;48.770;11.446;2022-11-15T09:16:13;9.60;;;7.45;;
20597;SDS011;10457;48.770;11.446;2022-11-15T09:21:55;9.63;;;7.68;;
20597;SDS011;10457;48.770;11.446;2022-11-15T09:27:35;11.90;;;8.32;;
20597;SDS011;10457;48.770;11.446;2022-11-15T09:33:15;12.50;;;7.95;;
20597;SDS011;10457;48.770;11.446;2022-11-15T09:38:56;8.32;;;7.50;;
20597;SDS011;10457;48.770;11.446;2022-11-15T09:44:43;11.82;;;8.02;;
20597;SDS011;10457;48.770;11.446;2022-11-15T09:50:49;8.38;;;6.43;;
20597;SDS011;10457;48.770;11.446;2022-11-15T09:56:15;8.02;;;7.20;;
20597;SDS011;10457;48.770;11.446;2022-11-15T10:01:43;9.50;;;7.38;;
20597;SDS011;10457;48.770;11.446;2022-11-15T10:07:15;9.40;;;8.48;;
20597;SDS011;10457;48.770;11.446;2022-11-15T10:12:45;8.13;;;6.75;;
20597;SDS011;10457;48.770;11.446;2022-11-15T10:18:14;9.02;;;8.23;;
20597;SDS011;10457;48.770;11.446;2022-11-15T10:23:38;9.10;;;8.07;;
20597;SDS011;10457;48.770;11.446;2022-11-15T10:29:01;8.52;;;7.72;;
20597;SDS011;10457;48.770;11.446;2022-11-15T10:34:23;9.30;;;7.00;;
20597;SDS011;10457;48.770;11.446;2022-11-15T10:39:50;8.63;;;7.28;;
20597;SDS011;10457;48.770;11.446;2022-11-15T10:45:28;8.68;;;6.60;;
20597;SDS011;10457;48.770;11.446;2022-11-15T10:50:51;9.45;;;7.43;;
20597;SDS011;10457;48.770;11.446;2022-11-15T10:56:15;8.98;;;8.07;;
20597;SDS011;10457;48.770;11.446;2022-11-15T11:01:47;7.00;;;6.30;;
20597;SDS011;10457;48.770;11.446;2022-11-15T11:07:19;6.75;;;6.15;;
20597;SDS011;10457;48.770;11.446;2022-11-15T11:12:43;8.55;;;6.82;;
20597;SDS011;10457;48.770;11.446;2022-11-15T11:18:06;9.07;;;6.25;;
20597;SDS011;10457;48.770;11.446;2022-11-15T11:23:38;7.00;;;5.82;;
20597;SDS011;10457;48.770;11.446;2022-11-15T11:29:15;6.05;;;5.55;;
20597;SDS011;10457;48.770;11.446;2022-11-15T11:34:55;9.55;;;6.38;;
20597;SDS011;10457;48.770;11.446;2022-11-15T11:40:26;6.57;;;5.93;;
20597;SDS011;10457;48.770;11.446;2022-11-15T11:52:06;7.15;;;6.43;;
20597;SDS011;10457;48.770;11.446;2022-11-15T11:57:35;6.72;;;6.13;;
20597;SDS011;10457;48.770;11.446;2022-11-15T12:03:05;6.97;;;6.32;;
20597;SDS011;10457;48.770;11.446;2022-11-15T12:08:45;6.30;;;5.70;;
20597;SDS011;10457;48.770;11.446;2022-11-15T12:14:19;5.97;;;5.45;;
20597;SDS011;10457;48.770;11.446;2022-11-15T12:19:52;5.63;;;5.10;;
20597;SDS011;10457;48.770;11.446;2022-11-15T12:25:19;7.05;;;6.35;;
20597;SDS011;10457;48.770;11.446;2022-11-15T12:30:45;7.22;;;6.53;;
20597;SDS011;10457;48.770;11.446;2022-11-15T12:48:20;7.10;;;6.25;;
20597;SDS011;10457;48.770;11.446;2022-11-15T13:06:03;9.15;;;6.65;;
20597;SDS011;10457;48.770;11.446;2022-11-15T13:11:43;10.35;;;6.55;;
20597;SDS011;10457;48.770;11.446;2022-11-15T13:17:16;7.65;;;6.75;;
20597;SDS011;10457;48.770;11.446;2022-11-15T13:23:07;13.98;;;6.65;;
20597;SDS011;10457;48.770;11.446;2022-11-15T13:28:33;7.32;;;6.55;;
20597;SDS011;10457;48.770;11.446;2022-11-15T13:34:00;12.57;;;8.25;;
20597;SDS011;10457;48.770;11.446;2022-11-15T13:39:36;8.15;;;6.68;;
20597;SDS011;10457;48.770;11.446;2022-11-15T13:45:23;11.88;;;7.45;;
20597;SDS011;10457;48.770;11.446;2022-11-15T13:50:47;7.53;;;6.82;;
20597;SDS011;10457;48.770;11.446;2022-11-15T13:56:23;9.63;;;6.88;;
20597;SDS011;10457;48.770;11.446;2022-11-15T14:01:45;15.07;;;8.20;;
20597;SDS011;10457;48.770;11.446;2022-11-15T14:07:14;12.40;;;8.38;;
20597;SDS011;10457;48.770;11.446;2022-11-15T14:12:49;13.60;;;8.65;;
20597;SDS011;10457;48.770;11.446;2022-11-15T14:18:38;11.63;;;9.48;;
20597;SDS011;10457;48.770;11.446;2022-11-15T14:24:15;18.42;;;15.05;;
20597;SDS011;10457;48.770;11.446;2022-11-15T14:29:39;17.13;;;11.55;;
20597;SDS011;10457;48.770;11.446;2022-11-15T14:35:01;13.40;;;10.50;;
20597;SDS011;10457;48.770;11.446;2022-11-15T14:40:24;10.40;;;9.23;;
20597;SDS011;10457;48.770;11.446;2022-11-15T14:45:46;12.45;;;8.77;;
20597;SDS011;10457;48.770;11.446;2022-11-15T14:51:12;9.32;;;7.22;;
20597;SDS011;10457;48.770;11.446;2022-11-15T14:56:34;13.45;;;8.70;;
20597;SDS011;10457;48.770;11.446;2022-11-15T15:01:57;12.88;;;9.95;;
20597;SDS011;10457;48.770;11.446;2022-11-15T15:07:19;13.18;;;8.98;;
20597;SDS011;10457;48.770;11.446;2022-11-15T15:12:41;12.68;;;9.02;;
20597;SDS011;10457;48.770;11.446;2022-11-15T15:18:04;12.82;;;8.45;;
20597;SDS011;10457;48.770;11.446;2022-11-15T15:23:28;17.98;;;11.77;;
20597;SDS011;10457;48.770;11.446;2022-11-15T15:28:50;25.90;;;12.95;;
20597;SDS011;10457;48.770;11.446;2022-11-15T15:34:13;20.92;;;13.38;;
20597;SDS011;10457;48.770;11.446;2022-11-15T15:39:34;22.53;;;12.20;;
20597;SDS011;10457;48.770;11.446;2022-11-15T15:44:56;34.93;;;20.87;;
20597;SDS011;10457;48.770;11.446;2022-11-15T15:50:22;29.20;;;18.80;;
20597;SDS011;10457;48.770;11.446;2022-11-15T15:55:46;20.53;;;14.27;;
20597;SDS011;10457;48.770;11.446;2022-11-15T16:01:07;23.97;;;15.57;;
20597;SDS011;10457;48.770;11.446;2022-11-15T16:06:34;22.83;;;15.30;;
20597;SDS011;10457;48.770;11.446;2022-11-15T16:11:58;19.17;;;14.23;;
20597;SDS011;10457;48.770;11.446;2022-11-15T16:17:20;21.67;;;13.57;;
20597;SDS011;10457;48.770;11.446;2022-11-15T16:22:47;18.73;;;12.77;;
20597;SDS011;10457;48.770;11.446;2022-11-15T16:28:15;25.37;;;12.90;;
20597;SDS011;10457;48.770;11.446;2022-11-15T16:33:40;18.17;;;13.07;;
20597;SDS011;10457;48.770;11.446;2022-11-15T16:39:03;25.87;;;14.30;;
20597;SDS011;10457;48.770;11.446;2022-11-15T16:44:24;25.87;;;14.33;;
20597;SDS011;10457;48.770;11.446;2022-11-15T16:49:45;19.13;;;13.47;;
20597;SDS011;10457;48.770;11.446;2022-11-15T16:55:09;26.17;;;16.00;;
20597;SDS011;10457;48.770;11.446;2022-11-15T17:00:30;24.67;;;16.93;;
20597;SDS011;10457;48.770;11.446;2022-11-15T17:05:51;41.63;;;22.50;;
20597;SDS011;10457;48.770;11.446;2022-11-15T17:11:19;53.00;;;29.57;;
20597;SDS011;10457;48.770;11.446;2022-11-15T17:16:43;58.53;;;31.03;;
20597;SDS011;10457;48.770;11.446;2022-11-15T17:22:05;64.17;;;34.90;;
20597;SDS011;10457;48.770;11.446;2022-11-15T17:27:28;75.40;;;37.40;;
20597;SDS011;10457;48.770;11.446;2022-11-15T17:32:50;65.53;;;35.43;;
20597;SDS011;10457;48.770;11.446;2022-11-15T17:38:11;43.43;;;24.33;;
20597;SDS011;10457;48.770;11.446;2022-11-15T17:43:34;30.03;;;17.73;;
20597;SDS011;10457;48.770;11.446;2022-11-15T17:48:56;23.43;;;16.83;;
20597;SDS011;10457;48.770;11.446;2022-11-15T17:54:18;30.47;;;19.20;;
20597;SDS011;10457;48.770;11.446;2022-11-15T17:59:40;27.77;;;18.97;;
20597;SDS011;10457;48.770;11.446;2022-11-15T18:05:02;23.10;;;18.47;;
20597;SDS011;10457;48.770;11.446;2022-11-15T18:10:24;25.30;;;18.30;;
20597;SDS011;10457;48.770;11.446;2022-11-15T18:15:49;35.10;;;20.90;;
20597;SDS011;10457;48.770;11.446;2022-11-15T18:21:15;23.63;;;15.57;;
20597;SDS011;10457;48.770;11.446;2022-11-15T18:26:38;20.90;;;14.43;;
20597;SDS011;10457;48.770;11.446;2022-11-15T18:32:03;28.43;;;15.63;;
20597;SDS011;10457;48.770;11.446;2022-11-15T18:37:30;25.67;;;17.20;;
20597;SDS011;10457;48.770;11.446;2022-11-15T18:42:51;27.87;;;18.00;;
20597;SDS011;10457;48.770;11.446;2022-11-15T18:48:15;30.27;;;18.30;;
20597;SDS011;10457;48.770;11.446;2022-11-15T18:53:37;25.13;;;16.83;;
20597;SDS011;10457;48.770;11.446;2022-11-15T18:59:00;29.37;;;17.33;;
20597;SDS011;10457;48.770;11.446;2022-11-15T19:04:24;33.33;;;19.47;;
20597;SDS011;10457;48.770;11.446;2022-11-15T19:09:46;25.40;;;18.53;;
20597;SDS011;10457;48.770;11.446;2022-11-15T19:15:08;22.97;;;17.10;;
20597;SDS011;10457;48.770;11.446;2022-11-15T19:20:33;28.70;;;16.97;;
20597;SDS011;10457;48.770;11.446;2022-11-15T19:25:56;28.33;;;18.00;;
20597;SDS011;10457;48.770;11.446;2022-11-15T19:31:19;25.80;;;16.93;;
20597;SDS011;10457;48.770;11.446;2022-11-15T19:36:44;27.13;;;18.00;;
20597;SDS011;10457;48.770;11.446;2022-11-15T19:42:05;26.90;;;18.30;;
20597;SDS011;10457;48.770;11.446;2022-11-15T19:47:28;27.10;;;18.53;;
20597;SDS011;10457;48.770;11.446;2022-11-15T19:52:51;31.10;;;18.30;;
20597;SDS011;10457;48.770;11.446;2022-11-15T19:58:12;28.50;;;20.13;;
20597;SDS011;10457;48.770;11.446;2022-11-15T20:03:34;28.13;;;19.63;;
20597;SDS011;10457;48.770;11.446;2022-11-15T20:09:02;34.10;;;19.27;;
20597;SDS011;10457;48.770;11.446;2022-11-15T20:14:24;32.83;;;19.37;;
20597;SDS011;10457;48.770;11.446;2022-11-15T20:19:47;29.83;;;19.47;;
20597;SDS011;10457;48.770;11.446;2022-11-15T20:25:10;30.47;;;19.57;;
20597;SDS011;10457;48.770;11.446;2022-11-15T20:30:32;26.50;;;18.70;;
20597;SDS011;10457;48.770;11.446;2022-11-15T20:36:01;28.37;;;18.40;;
20597;SDS011;10457;48.770;11.446;2022-11-15T20:41:26;29.30;;;18.83;;
20597;SDS011;10457;48.770;11.446;2022-11-15T20:46:47;28.00;;;18.10;;
20597;SDS011;10457;48.770;11.446;2022-11-15T20:52:09;27.67;;;18.57;;
20597;SDS011;10457;48.770;11.446;2022-11-15T20:57:31;26.00;;;18.47;;
20597;SDS011;10457;48.770;11.446;2022-11-15T21:02:53;27.90;;;17.53;;
20597;SDS011;10457;48.770;11.446;2022-11-15T21:08:14;32.77;;;18.77;;
20597;SDS011;10457;48.770;11.446;2022-11-15T21:13:37;23.77;;;17.87;;
20597;SDS011;10457;48.770;11.446;2022-11-15T21:18:59;27.30;;;17.67;;
20597;SDS011;10457;48.770;11.446;2022-11-15T21:24:20;27.30;;;17.73;;
20597;SDS011;10457;48.770;11.446;2022-11-15T21:29:44;33.87;;;18.30;;
20597;SDS011;10457;48.770;11.446;2022-11-15T21:35:08;27.03;;;17.70;;
20597;SDS011;10457;48.770;11.446;2022-11-15T21:40:29;32.53;;;18.03;;
20597;SDS011;10457;48.770;11.446;2022-11-15T21:45:55;34.60;;;20.03;;
20597;SDS011;10457;48.770;11.446;2022-11-15T21:51:18;27.97;;;18.30;;
20597;SDS011;10457;48.770;11.446;2022-11-15T21:56:40;32.77;;;19.33;;
20597;SDS011;10457;48.770;11.446;2022-11-15T22:02:03;26.63;;;18.60;;
20597;SDS011;10457;48.770;11.446;2022-11-15T22:07:34;38.03;;;18.73;;
20597;SDS011;10457;48.770;11.446;2022-11-15T22:12:55;30.47;;;18.40;;
20597;SDS011;10457;48.770;11.446;2022-11-15T22:18:19;31.87;;;18.20;;
20597;SDS011;10457;48.770;11.446;2022-11-15T22:23:41;29.03;;;19.63;;
20597;SDS011;10457;48.770;11.446;2022-11-15T22:29:04;35.03;;;17.73;;
20597;SDS011;10457;48.770;11.446;2022-11-15T22:34:29;32.43;;;19.40;;
20597;SDS011;10457;48.770;11.446;2022-11-15T22:39:50;33.87;;;20.60;;
20597;SDS011;10457;48.770;11.446;2022-11-15T22:45:12;32.07;;;19.60;;
20597;SDS011;10457;48.770;11.446;2022-11-15T22:50:35;34.30;;;20.87;;
20597;SDS011;10457;48.770;11.446;2022-11-15T22:55:57;32.60;;;20.17;;
20597;SDS011;10457;48.770;11.446;2022-11-15T23:01:21;33.50;;;18.93;;
20597;SDS011;10457;48.770;11.446;2022-11-15T23:06:44;36.37;;;19.30;;
20597;SDS011;10457;48.770;11.446;2022-11-15T23:12:09;32.40;;;19.93;;
20597;SDS011;10457;48.770;11.446;2022-11-15T23:17:52;32.77;;;19.27;;
20597;SDS011;10457;48.770;11.446;2022-11-15T23:23:15;33.63;;;20.47;;
20597;SDS011;10457;48.770;11.446;2022-11-15T23:28:36;30.07;;;18.43;;
20597;SDS011;10457;48.770;11.446;2022-11-15T23:33:58;31.47;;;18.77;;
20597;SDS011;10457;48.770;11.446;2022-11-15T23:39:21;33.57;;;19.63;;
20597;SDS011;10457;48.770;11.446;2022-11-15T23:44:43;39.77;;;21.37;;
20597;SDS011;10457;48.770;11.446;2022-11-15T23:50:05;32.10;;;18.67;;
20597;SDS011;10457;48.770;11.446;2022-11-15T23:55:29;29.40;;;18.03;;
